sensor_id;sensor_type;location;lat;lon;timestamp;P1;durP1;ratioP1;P2;durP2;ratioP2
77733;SDS011;66902;41.720;44.796;2023-06-24T04:47:51;13.60;;;7.70;;
77733;SDS011;66902;41.720;44.796;2023-06-24T04:50:22;12.80;;;7.40;;
77733;SDS011;66902;41.720;44.796;2023-06-24T04:52:52;8.90;;;7.90;;
77733;SDS011;66902;41.720;44.796;2023-06-24T04:55:24;11.10;;;6.30;;
77733;SDS011;66902;41.720;44.796;2023-06-24T04:57:54;7.70;;;6.40;;
77733;SDS011;66902;41.720;44.796;2023-06-24T05:00:25;7.20;;;6.40;;
77733;SDS011;66902;41.720;44.796;2023-06-24T05:02:56;14.40;;;6.60;;
77733;SDS011;66902;41.720;44.796;2023-06-24T05:05:27;10.30;;;7.00;;
77733;SDS011;66902;41.720;44.796;2023-06-24T05:08:00;9.40;;;6.00;;
77733;SDS011;66902;41.720;44.796;2023-06-24T05:10:31;9.60;;;8.00;;
77733;SDS011;66902;41.720;44.796;2023-06-24T05:13:02;11.20;;;7.60;;
77733;SDS011;66902;41.720;44.796;2023-06-24T05:15:33;15.90;;;10.80;;
77733;SDS011;66902;41.720;44.796;2023-06-24T05:18:04;8.30;;;5.70;;
77733;SDS011;66902;41.720;44.796;2023-06-24T05:20:34;6.80;;;6.10;;
77733;SDS011;66902;41.720;44.796;2023-06-24T05:23:05;15.30;;;8.40;;
77733;SDS011;66902;41.720;44.796;2023-06-24T05:25:36;11.70;;;8.40;;
77733;SDS011;66902;41.720;44.796;2023-06-24T05:28:08;8.40;;;5.90;;
77733;SDS011;66902;41.720;44.796;2023-06-24T05:30:40;13.50;;;8.00;;
77733;SDS011;66902;41.720;44.796;2023-06-24T05:33:13;8.60;;;6.30;;
77733;SDS011;66902;41.720;44.796;2023-06-24T05:35:43;7.90;;;7.00;;
77733;SDS011;66902;41.720;44.796;2023-06-24T05:38:14;14.20;;;6.30;;
77733;SDS011;66902;41.720;44.796;2023-06-24T05:40:44;6.00;;;5.10;;
77733;SDS011;66902;41.720;44.796;2023-06-24T05:43:15;9.10;;;8.30;;
77733;SDS011;66902;41.720;44.796;2023-06-24T05:45:45;11.40;;;8.10;;
77733;SDS011;66902;41.720;44.796;2023-06-24T05:48:15;7.80;;;7.00;;
77733;SDS011;66902;41.720;44.796;2023-06-24T05:50:46;5.60;;;4.10;;
77733;SDS011;66902;41.720;44.796;2023-06-24T05:53:16;5.10;;;4.40;;
77733;SDS011;66902;41.720;44.796;2023-06-24T05:55:48;9.70;;;5.20;;
77733;SDS011;66902;41.720;44.796;2023-06-24T05:58:18;5.60;;;4.90;;
77733;SDS011;66902;41.720;44.796;2023-06-24T06:00:48;7.40;;;6.00;;
77733;SDS011;66902;41.720;44.796;2023-06-24T06:03:19;9.90;;;7.30;;
77733;SDS011;66902;41.720;44.796;2023-06-24T06:05:51;6.60;;;5.00;;
77733;SDS011;66902;41.720;44.796;2023-06-24T06:08:21;10.40;;;7.50;;
77733;SDS011;66902;41.720;44.796;2023-06-24T06:10:51;5.20;;;4.20;;
77733;SDS011;66902;41.720;44.796;2023-06-24T06:13:22;7.10;;;5.00;;
77733;SDS011;66902;41.720;44.796;2023-06-24T06:15:54;11.00;;;9.00;;
77733;SDS011;66902;41.720;44.796;2023-06-24T06:18:24;7.30;;;4.80;;
77733;SDS011;66902;41.720;44.796;2023-06-24T06:20:55;8.80;;;6.10;;
77733;SDS011;66902;41.720;44.796;2023-06-24T06:23:26;5.90;;;4.90;;
77733;SDS011;66902;41.720;44.796;2023-06-24T06:25:57;6.40;;;3.90;;
77733;SDS011;66902;41.720;44.796;2023-06-24T06:28:27;7.20;;;5.20;;
77733;SDS011;66902;41.720;44.796;2023-06-24T06:30:57;10.30;;;6.00;;
77733;SDS011;66902;41.720;44.796;2023-06-24T06:33:28;9.20;;;6.00;;
77733;SDS011;66902;41.720;44.796;2023-06-24T06:35:59;8.10;;;5.90;;
77733;SDS011;66902;41.720;44.796;2023-06-24T06:38:29;5.70;;;5.00;;
77733;SDS011;66902;41.720;44.796;2023-06-24T06:41:00;6.70;;;6.00;;
77733;SDS011;66902;41.720;44.796;2023-06-24T06:43:30;6.90;;;4.70;;
77733;SDS011;66902;41.720;44.796;2023-06-24T06:46:00;6.30;;;4.50;;
77733;SDS011;66902;41.720;44.796;2023-06-24T06:48:31;6.90;;;5.70;;
77733;SDS011;66902;41.720;44.796;2023-06-24T06:51:01;5.50;;;4.50;;
77733;SDS011;66902;41.720;44.796;2023-06-24T06:53:32;5.40;;;4.90;;
77733;SDS011;66902;41.720;44.796;2023-06-24T06:56:02;7.40;;;4.50;;
77733;SDS011;66902;41.720;44.796;2023-06-24T06:58:32;9.40;;;3.50;;
77733;SDS011;66902;41.720;44.796;2023-06-24T07:01:03;5.70;;;3.60;;
77733;SDS011;66902;41.720;44.796;2023-06-24T07:03:34;5.50;;;3.50;;
77733;SDS011;66902;41.720;44.796;2023-06-24T07:06:04;4.70;;;4.10;;
77733;SDS011;66902;41.720;44.796;2023-06-24T07:08:35;6.00;;;2.90;;
77733;SDS011;66902;41.720;44.796;2023-06-24T07:11:05;6.40;;;5.20;;
77733;SDS011;66902;41.720;44.796;2023-06-24T07:13:36;9.60;;;4.80;;
77733;SDS011;66902;41.720;44.796;2023-06-24T07:16:07;5.80;;;4.00;;
77733;SDS011;66902;41.720;44.796;2023-06-24T07:18:38;5.30;;;4.00;;
77733;SDS011;66902;41.720;44.796;2023-06-24T07:21:08;4.30;;;3.00;;
77733;SDS011;66902;41.720;44.796;2023-06-24T07:23:39;6.40;;;4.10;;
77733;SDS011;66902;41.720;44.796;2023-06-24T07:26:10;4.70;;;3.80;;
77733;SDS011;66902;41.720;44.796;2023-06-24T07:28:41;7.50;;;4.60;;
77733;SDS011;66902;41.720;44.796;2023-06-24T07:31:24;9.10;;;4.90;;
77733;SDS011;66902;41.720;44.796;2023-06-24T07:33:55;6.60;;;3.00;;
77733;SDS011;66902;41.720;44.796;2023-06-24T07:36:56;5.60;;;3.00;;
77733;SDS011;66902;41.720;44.796;2023-06-24T07:39:39;9.00;;;3.70;;
77733;SDS011;66902;41.720;44.796;2023-06-24T07:42:10;6.10;;;3.80;;
77733;SDS011;66902;41.720;44.796;2023-06-24T07:44:43;6.70;;;3.90;;
77733;SDS011;66902;41.720;44.796;2023-06-24T07:47:13;5.40;;;2.60;;
77733;SDS011;66902;41.720;44.796;2023-06-24T07:49:45;4.90;;;2.90;;
77733;SDS011;66902;41.720;44.796;2023-06-24T07:52:16;3.40;;;2.30;;
77733;SDS011;66902;41.720;44.796;2023-06-24T07:54:46;3.40;;;2.70;;
77733;SDS011;66902;41.720;44.796;2023-06-24T07:57:17;3.00;;;2.50;;
77733;SDS011;66902;41.720;44.796;2023-06-24T07:59:47;5.60;;;4.50;;
77733;SDS011;66902;41.720;44.796;2023-06-24T08:02:17;5.20;;;3.40;;
77733;SDS011;66902;41.720;44.796;2023-06-24T08:04:48;1.80;;;1.40;;
77733;SDS011;66902;41.720;44.796;2023-06-24T08:07:18;3.80;;;2.90;;
77733;SDS011;66902;41.720;44.796;2023-06-24T08:09:49;3.90;;;2.30;;
77733;SDS011;66902;41.720;44.796;2023-06-24T08:12:45;2.90;;;2.40;;
77733;SDS011;66902;41.720;44.796;2023-06-24T08:15:16;2.50;;;2.00;;
77733;SDS011;66902;41.720;44.796;2023-06-24T08:17:51;6.30;;;2.00;;
77733;SDS011;66902;41.720;44.796;2023-06-24T08:20:22;3.40;;;2.40;;
77733;SDS011;66902;41.720;44.796;2023-06-24T08:22:53;2.40;;;2.10;;
77733;SDS011;66902;41.720;44.796;2023-06-24T08:25:24;2.60;;;2.40;;
77733;SDS011;66902;41.720;44.796;2023-06-24T08:27:55;3.60;;;2.50;;
77733;SDS011;66902;41.720;44.796;2023-06-24T08:30:26;3.20;;;2.00;;
77733;SDS011;66902;41.720;44.796;2023-06-24T08:32:57;5.00;;;2.10;;
77733;SDS011;66902;41.720;44.796;2023-06-24T08:35:28;7.80;;;2.10;;
77733;SDS011;66902;41.720;44.796;2023-06-24T08:37:59;7.00;;;2.70;;
77733;SDS011;66902;41.720;44.796;2023-06-24T08:40:30;6.90;;;1.70;;
77733;SDS011;66902;41.720;44.796;2023-06-24T08:43:00;2.20;;;1.70;;
77733;SDS011;66902;41.720;44.796;2023-06-24T08:45:31;5.00;;;2.70;;
77733;SDS011;66902;41.720;44.796;2023-06-24T08:48:03;3.50;;;1.60;;
77733;SDS011;66902;41.720;44.796;2023-06-24T08:50:36;2.60;;;1.90;;
77733;SDS011;66902;41.720;44.796;2023-06-24T08:55:42;3.30;;;2.20;;
77733;SDS011;66902;41.720;44.796;2023-06-24T08:58:14;4.80;;;2.90;;
77733;SDS011;66902;41.720;44.796;2023-06-24T09:00:45;3.50;;;2.70;;
77733;SDS011;66902;41.720;44.796;2023-06-24T09:03:17;2.90;;;2.30;;
77733;SDS011;66902;41.720;44.796;2023-06-24T09:05:48;2.80;;;2.60;;
77733;SDS011;66902;41.720;44.796;2023-06-24T09:08:19;2.90;;;1.80;;
77733;SDS011;66902;41.720;44.796;2023-06-24T09:10:54;3.40;;;2.20;;
77733;SDS011;66902;41.720;44.796;2023-06-24T09:13:28;4.60;;;2.60;;
77733;SDS011;66902;41.720;44.796;2023-06-24T09:16:13;3.00;;;2.80;;
77733;SDS011;66902;41.720;44.796;2023-06-24T09:18:48;3.90;;;2.80;;
77733;SDS011;66902;41.720;44.796;2023-06-24T09:21:22;4.60;;;2.20;;
77733;SDS011;66902;41.720;44.796;2023-06-24T09:23:54;3.00;;;2.40;;
77733;SDS011;66902;41.720;44.796;2023-06-24T09:26:26;3.60;;;2.20;;
77733;SDS011;66902;41.720;44.796;2023-06-24T09:28:58;2.60;;;2.40;;
77733;SDS011;66902;41.720;44.796;2023-06-24T09:31:29;2.90;;;2.50;;
77733;SDS011;66902;41.720;44.796;2023-06-24T09:33:59;5.00;;;2.40;;
77733;SDS011;66902;41.720;44.796;2023-06-24T09:36:29;4.30;;;2.10;;
77733;SDS011;66902;41.720;44.796;2023-06-24T09:39:03;4.90;;;2.20;;
77733;SDS011;66902;41.720;44.796;2023-06-24T09:41:46;4.00;;;2.60;;
77733;SDS011;66902;41.720;44.796;2023-06-24T09:44:19;3.50;;;2.60;;
77733;SDS011;66902;41.720;44.796;2023-06-24T09:46:51;6.40;;;3.10;;
77733;SDS011;66902;41.720;44.796;2023-06-24T09:49:22;4.90;;;2.80;;
77733;SDS011;66902;41.720;44.796;2023-06-24T09:51:55;2.40;;;2.20;;
77733;SDS011;66902;41.720;44.796;2023-06-24T09:54:27;4.40;;;2.20;;
77733;SDS011;66902;41.720;44.796;2023-06-24T09:57:02;4.00;;;2.10;;
77733;SDS011;66902;41.720;44.796;2023-06-24T09:59:36;4.00;;;2.20;;
77733;SDS011;66902;41.720;44.796;2023-06-24T10:02:07;4.20;;;3.00;;
77733;SDS011;66902;41.720;44.796;2023-06-24T10:04:38;2.70;;;2.10;;
77733;SDS011;66902;41.720;44.796;2023-06-24T10:07:10;5.70;;;2.90;;
77733;SDS011;66902;41.720;44.796;2023-06-24T10:09:42;3.80;;;2.60;;
77733;SDS011;66902;41.720;44.796;2023-06-24T10:12:13;4.00;;;2.60;;
77733;SDS011;66902;41.720;44.796;2023-06-24T10:14:44;4.40;;;2.90;;
77733;SDS011;66902;41.720;44.796;2023-06-24T10:17:15;5.60;;;2.50;;
77733;SDS011;66902;41.720;44.796;2023-06-24T10:19:45;6.40;;;2.40;;
77733;SDS011;66902;41.720;44.796;2023-06-24T10:22:16;3.50;;;2.10;;
77733;SDS011;66902;41.720;44.796;2023-06-24T10:24:47;2.90;;;1.90;;
77733;SDS011;66902;41.720;44.796;2023-06-24T10:27:19;3.70;;;2.40;;
77733;SDS011;66902;41.720;44.796;2023-06-24T10:29:51;3.00;;;2.30;;
77733;SDS011;66902;41.720;44.796;2023-06-24T10:32:24;7.00;;;2.20;;
77733;SDS011;66902;41.720;44.796;2023-06-24T10:34:55;5.40;;;2.80;;
77733;SDS011;66902;41.720;44.796;2023-06-24T10:37:26;4.00;;;2.10;;
77733;SDS011;66902;41.720;44.796;2023-06-24T10:40:02;4.80;;;2.30;;
77733;SDS011;66902;41.720;44.796;2023-06-24T10:42:36;5.10;;;2.60;;
77733;SDS011;66902;41.720;44.796;2023-06-24T10:45:16;8.30;;;2.50;;
77733;SDS011;66902;41.720;44.796;2023-06-24T10:47:49;5.60;;;4.20;;
77733;SDS011;66902;41.720;44.796;2023-06-24T10:50:21;5.10;;;4.50;;
77733;SDS011;66902;41.720;44.796;2023-06-24T10:52:53;12.70;;;3.30;;
77733;SDS011;66902;41.720;44.796;2023-06-24T10:55:26;3.60;;;3.20;;
77733;SDS011;66902;41.720;44.796;2023-06-24T10:58:07;4.30;;;2.40;;
77733;SDS011;66902;41.720;44.796;2023-06-24T11:00:40;6.40;;;2.40;;
77733;SDS011;66902;41.720;44.796;2023-06-24T11:03:13;8.10;;;2.40;;
77733;SDS011;66902;41.720;44.796;2023-06-24T11:05:45;2.90;;;2.50;;
77733;SDS011;66902;41.720;44.796;2023-06-24T11:08:17;1.70;;;1.60;;
77733;SDS011;66902;41.720;44.796;2023-06-24T11:10:48;4.60;;;2.40;;
77733;SDS011;66902;41.720;44.796;2023-06-24T11:13:20;4.20;;;2.40;;
77733;SDS011;66902;41.720;44.796;2023-06-24T11:15:51;6.10;;;2.40;;
77733;SDS011;66902;41.720;44.796;2023-06-24T11:18:22;3.60;;;2.00;;
77733;SDS011;66902;41.720;44.796;2023-06-24T11:20:54;4.50;;;2.20;;
77733;SDS011;66902;41.720;44.796;2023-06-24T11:23:26;2.20;;;1.50;;
77733;SDS011;66902;41.720;44.796;2023-06-24T11:25:57;4.40;;;2.70;;
77733;SDS011;66902;41.720;44.796;2023-06-24T11:31:06;5.40;;;2.40;;
77733;SDS011;66902;41.720;44.796;2023-06-24T11:33:38;7.20;;;4.20;;
77733;SDS011;66902;41.720;44.796;2023-06-24T11:36:09;3.40;;;2.20;;
77733;SDS011;66902;41.720;44.796;2023-06-24T11:38:41;4.50;;;2.20;;
77733;SDS011;66902;41.720;44.796;2023-06-24T11:41:15;3.10;;;2.50;;
77733;SDS011;66902;41.720;44.796;2023-06-24T11:43:49;3.80;;;2.20;;
77733;SDS011;66902;41.720;44.796;2023-06-24T11:46:24;3.60;;;2.60;;
77733;SDS011;66902;41.720;44.796;2023-06-24T11:49:03;4.80;;;2.10;;
77733;SDS011;66902;41.720;44.796;2023-06-24T11:51:35;4.50;;;2.30;;
77733;SDS011;66902;41.720;44.796;2023-06-24T11:54:06;2.70;;;2.10;;
77733;SDS011;66902;41.720;44.796;2023-06-24T11:56:37;4.80;;;1.90;;
77733;SDS011;66902;41.720;44.796;2023-06-24T11:59:15;4.60;;;2.10;;
77733;SDS011;66902;41.720;44.796;2023-06-24T12:01:55;2.80;;;2.10;;
77733;SDS011;66902;41.720;44.796;2023-06-24T12:04:30;7.10;;;2.30;;
77733;SDS011;66902;41.720;44.796;2023-06-24T12:07:02;9.00;;;2.00;;
77733;SDS011;66902;41.720;44.796;2023-06-24T12:09:33;4.40;;;1.70;;
77733;SDS011;66902;41.720;44.796;2023-06-24T12:12:04;4.60;;;2.40;;
77733;SDS011;66902;41.720;44.796;2023-06-24T12:14:36;2.30;;;1.90;;
77733;SDS011;66902;41.720;44.796;2023-06-24T12:17:07;3.70;;;2.40;;
77733;SDS011;66902;41.720;44.796;2023-06-24T12:19:37;5.70;;;2.70;;
77733;SDS011;66902;41.720;44.796;2023-06-24T12:22:08;3.00;;;1.90;;
77733;SDS011;66902;41.720;44.796;2023-06-24T12:24:39;4.30;;;2.50;;
77733;SDS011;66902;41.720;44.796;2023-06-24T12:27:10;3.90;;;2.20;;
77733;SDS011;66902;41.720;44.796;2023-06-24T12:29:41;3.40;;;2.90;;
77733;SDS011;66902;41.720;44.796;2023-06-24T12:32:12;5.20;;;2.40;;
77733;SDS011;66902;41.720;44.796;2023-06-24T12:34:43;2.80;;;1.90;;
77733;SDS011;66902;41.720;44.796;2023-06-24T12:37:13;4.90;;;2.40;;
77733;SDS011;66902;41.720;44.796;2023-06-24T12:39:45;4.90;;;2.00;;
77733;SDS011;66902;41.720;44.796;2023-06-24T12:42:23;2.90;;;2.20;;
77733;SDS011;66902;41.720;44.796;2023-06-24T12:44:59;4.00;;;2.10;;
77733;SDS011;66902;41.720;44.796;2023-06-24T12:48:01;2.10;;;1.80;;
77733;SDS011;66902;41.720;44.796;2023-06-24T12:50:32;3.30;;;2.40;;
77733;SDS011;66902;41.720;44.796;2023-06-24T12:53:06;4.80;;;2.20;;
77733;SDS011;66902;41.720;44.796;2023-06-24T12:55:39;5.30;;;2.20;;
77733;SDS011;66902;41.720;44.796;2023-06-24T12:58:10;4.40;;;2.40;;
77733;SDS011;66902;41.720;44.796;2023-06-24T13:00:41;4.20;;;2.20;;
77733;SDS011;66902;41.720;44.796;2023-06-24T13:03:12;1.90;;;1.60;;
77733;SDS011;66902;41.720;44.796;2023-06-24T13:05:42;3.30;;;2.20;;
77733;SDS011;66902;41.720;44.796;2023-06-24T13:08:17;4.90;;;3.50;;
77733;SDS011;66902;41.720;44.796;2023-06-24T13:10:48;13.50;;;3.70;;
77733;SDS011;66902;41.720;44.796;2023-06-24T13:13:18;5.00;;;2.60;;
77733;SDS011;66902;41.720;44.796;2023-06-24T13:15:49;21.30;;;3.50;;
77733;SDS011;66902;41.720;44.796;2023-06-24T13:18:19;3.90;;;2.70;;
77733;SDS011;66902;41.720;44.796;2023-06-24T13:20:50;6.50;;;2.60;;
77733;SDS011;66902;41.720;44.796;2023-06-24T13:23:41;4.50;;;2.30;;
77733;SDS011;66902;41.720;44.796;2023-06-24T13:26:12;8.20;;;2.60;;
77733;SDS011;66902;41.720;44.796;2023-06-24T13:28:43;4.60;;;3.50;;
77733;SDS011;66902;41.720;44.796;2023-06-24T13:31:13;4.20;;;2.90;;
77733;SDS011;66902;41.720;44.796;2023-06-24T13:33:44;3.90;;;3.40;;
77733;SDS011;66902;41.720;44.796;2023-06-24T13:36:27;4.00;;;2.50;;
77733;SDS011;66902;41.720;44.796;2023-06-24T13:39:00;14.20;;;3.20;;
77733;SDS011;66902;41.720;44.796;2023-06-24T13:41:31;3.20;;;1.80;;
77733;SDS011;66902;41.720;44.796;2023-06-24T13:44:02;3.10;;;2.00;;
77733;SDS011;66902;41.720;44.796;2023-06-24T13:46:33;2.20;;;2.00;;
77733;SDS011;66902;41.720;44.796;2023-06-24T13:49:03;2.40;;;2.20;;
77733;SDS011;66902;41.720;44.796;2023-06-24T13:51:34;5.50;;;1.80;;
77733;SDS011;66902;41.720;44.796;2023-06-24T13:54:05;2.40;;;1.70;;
77733;SDS011;66902;41.720;44.796;2023-06-24T13:56:35;2.70;;;2.30;;
77733;SDS011;66902;41.720;44.796;2023-06-24T13:59:06;3.60;;;1.60;;
77733;SDS011;66902;41.720;44.796;2023-06-24T14:01:39;10.00;;;2.10;;
77733;SDS011;66902;41.720;44.796;2023-06-24T14:04:10;3.90;;;2.20;;
77733;SDS011;66902;41.720;44.796;2023-06-24T14:06:40;4.50;;;2.60;;
77733;SDS011;66902;41.720;44.796;2023-06-24T14:09:11;2.10;;;1.90;;
77733;SDS011;66902;41.720;44.796;2023-06-24T14:11:42;7.50;;;2.70;;
77733;SDS011;66902;41.720;44.796;2023-06-24T14:14:13;2.10;;;1.80;;
77733;SDS011;66902;41.720;44.796;2023-06-24T14:16:43;8.10;;;1.70;;
77733;SDS011;66902;41.720;44.796;2023-06-24T14:19:14;2.70;;;2.00;;
77733;SDS011;66902;41.720;44.796;2023-06-24T14:21:44;5.60;;;1.90;;
77733;SDS011;66902;41.720;44.796;2023-06-24T14:24:15;3.20;;;1.90;;
77733;SDS011;66902;41.720;44.796;2023-06-24T14:26:46;3.70;;;2.40;;
77733;SDS011;66902;41.720;44.796;2023-06-24T14:29:18;6.60;;;2.30;;
77733;SDS011;66902;41.720;44.796;2023-06-24T14:31:49;4.40;;;2.50;;
77733;SDS011;66902;41.720;44.796;2023-06-24T14:34:22;4.40;;;2.20;;
77733;SDS011;66902;41.720;44.796;2023-06-24T14:36:53;8.80;;;2.90;;
77733;SDS011;66902;41.720;44.796;2023-06-24T14:39:23;2.30;;;2.00;;
77733;SDS011;66902;41.720;44.796;2023-06-24T14:41:56;8.40;;;3.00;;
77733;SDS011;66902;41.720;44.796;2023-06-24T14:44:27;8.30;;;2.40;;
77733;SDS011;66902;41.720;44.796;2023-06-24T14:46:57;6.10;;;2.90;;
77733;SDS011;66902;41.720;44.796;2023-06-24T14:49:28;8.40;;;3.20;;
77733;SDS011;66902;41.720;44.796;2023-06-24T14:51:59;3.60;;;2.10;;
77733;SDS011;66902;41.720;44.796;2023-06-24T14:54:29;8.40;;;3.00;;
77733;SDS011;66902;41.720;44.796;2023-06-24T14:57:00;4.00;;;2.90;;
77733;SDS011;66902;41.720;44.796;2023-06-24T14:59:31;5.10;;;3.30;;
77733;SDS011;66902;41.720;44.796;2023-06-24T15:02:02;2.60;;;2.30;;
77733;SDS011;66902;41.720;44.796;2023-06-24T15:04:35;6.40;;;3.70;;
77733;SDS011;66902;41.720;44.796;2023-06-24T15:07:06;4.50;;;2.70;;
77733;SDS011;66902;41.720;44.796;2023-06-24T15:09:37;5.00;;;2.30;;
77733;SDS011;66902;41.720;44.796;2023-06-24T15:12:10;5.50;;;2.40;;
77733;SDS011;66902;41.720;44.796;2023-06-24T15:14:41;4.90;;;3.90;;
77733;SDS011;66902;41.720;44.796;2023-06-24T15:17:13;4.30;;;3.90;;
77733;SDS011;66902;41.720;44.796;2023-06-24T15:19:45;7.00;;;3.80;;
77733;SDS011;66902;41.720;44.796;2023-06-24T15:22:15;6.80;;;3.60;;
77733;SDS011;66902;41.720;44.796;2023-06-24T15:24:46;3.70;;;3.10;;
77733;SDS011;66902;41.720;44.796;2023-06-24T15:27:17;4.00;;;3.00;;
77733;SDS011;66902;41.720;44.796;2023-06-24T15:29:48;6.40;;;4.00;;
77733;SDS011;66902;41.720;44.796;2023-06-24T15:32:19;2.60;;;2.10;;
77733;SDS011;66902;41.720;44.796;2023-06-24T15:34:49;5.60;;;3.50;;
77733;SDS011;66902;41.720;44.796;2023-06-24T15:37:20;4.00;;;3.10;;
77733;SDS011;66902;41.720;44.796;2023-06-24T15:39:51;7.50;;;3.90;;
77733;SDS011;66902;41.720;44.796;2023-06-24T15:42:22;16.70;;;4.80;;
77733;SDS011;66902;41.720;44.796;2023-06-24T15:44:54;5.00;;;3.60;;
77733;SDS011;66902;41.720;44.796;2023-06-24T15:47:24;12.40;;;4.30;;
77733;SDS011;66902;41.720;44.796;2023-06-24T15:49:55;5.30;;;4.00;;
77733;SDS011;66902;41.720;44.796;2023-06-24T15:52:26;13.60;;;5.10;;
77733;SDS011;66902;41.720;44.796;2023-06-24T15:54:57;5.70;;;3.80;;
77733;SDS011;66902;41.720;44.796;2023-06-24T15:57:28;8.00;;;3.70;;
77733;SDS011;66902;41.720;44.796;2023-06-24T15:59:58;4.20;;;3.00;;
77733;SDS011;66902;41.720;44.796;2023-06-24T16:02:29;10.10;;;5.10;;
77733;SDS011;66902;41.720;44.796;2023-06-24T16:05:00;10.10;;;4.90;;
77733;SDS011;66902;41.720;44.796;2023-06-24T16:07:33;13.10;;;6.30;;
77733;SDS011;66902;41.720;44.796;2023-06-24T16:10:05;9.30;;;5.20;;
77733;SDS011;66902;41.720;44.796;2023-06-24T16:12:37;13.00;;;6.20;;
77733;SDS011;66902;41.720;44.796;2023-06-24T16:15:08;5.50;;;4.90;;
77733;SDS011;66902;41.720;44.796;2023-06-24T16:17:39;17.70;;;14.00;;
77733;SDS011;66902;41.720;44.796;2023-06-24T16:20:11;14.80;;;9.20;;
77733;SDS011;66902;41.720;44.796;2023-06-24T16:22:42;8.50;;;6.20;;
77733;SDS011;66902;41.720;44.796;2023-06-24T16:25:13;10.10;;;5.60;;
77733;SDS011;66902;41.720;44.796;2023-06-24T16:27:44;8.90;;;4.80;;
77733;SDS011;66902;41.720;44.796;2023-06-24T16:30:15;13.50;;;5.90;;
77733;SDS011;66902;41.720;44.796;2023-06-24T16:32:47;14.70;;;7.50;;
77733;SDS011;66902;41.720;44.796;2023-06-24T16:35:18;10.40;;;4.40;;
77733;SDS011;66902;41.720;44.796;2023-06-24T16:37:49;7.90;;;6.60;;
77733;SDS011;66902;41.720;44.796;2023-06-24T16:40:20;10.80;;;6.20;;
77733;SDS011;66902;41.720;44.796;2023-06-24T16:42:50;10.80;;;7.00;;
77733;SDS011;66902;41.720;44.796;2023-06-24T16:45:21;6.10;;;5.50;;
77733;SDS011;66902;41.720;44.796;2023-06-24T16:47:51;12.90;;;6.20;;
77733;SDS011;66902;41.720;44.796;2023-06-24T16:50:22;9.00;;;6.10;;
77733;SDS011;66902;41.720;44.796;2023-06-24T16:52:52;7.00;;;5.50;;
77733;SDS011;66902;41.720;44.796;2023-06-24T16:55:23;7.70;;;4.60;;
77733;SDS011;66902;41.720;44.796;2023-06-24T16:57:55;12.40;;;5.70;;
77733;SDS011;66902;41.720;44.796;2023-06-24T17:00:25;10.30;;;4.90;;
77733;SDS011;66902;41.720;44.796;2023-06-24T17:02:56;8.30;;;7.40;;
77733;SDS011;66902;41.720;44.796;2023-06-24T17:05:26;11.70;;;8.30;;
77733;SDS011;66902;41.720;44.796;2023-06-24T17:07:57;8.00;;;5.60;;
77733;SDS011;66902;41.720;44.796;2023-06-24T17:10:28;11.40;;;7.10;;
77733;SDS011;66902;41.720;44.796;2023-06-24T17:12:59;9.60;;;6.40;;
77733;SDS011;66902;41.720;44.796;2023-06-24T17:15:29;9.90;;;5.70;;
77733;SDS011;66902;41.720;44.796;2023-06-24T17:18:01;14.90;;;6.60;;
77733;SDS011;66902;41.720;44.796;2023-06-24T17:20:31;7.50;;;5.70;;
77733;SDS011;66902;41.720;44.796;2023-06-24T17:23:02;19.80;;;12.80;;
77733;SDS011;66902;41.720;44.796;2023-06-24T17:25:33;13.10;;;8.70;;
77733;SDS011;66902;41.720;44.796;2023-06-24T17:28:04;11.20;;;8.40;;
77733;SDS011;66902;41.720;44.796;2023-06-24T17:30:35;14.60;;;8.70;;
77733;SDS011;66902;41.720;44.796;2023-06-24T17:33:06;16.70;;;8.40;;
77733;SDS011;66902;41.720;44.796;2023-06-24T17:35:37;10.30;;;9.10;;
77733;SDS011;66902;41.720;44.796;2023-06-24T17:38:08;11.90;;;7.00;;
77733;SDS011;66902;41.720;44.796;2023-06-24T17:40:39;9.40;;;6.90;;
77733;SDS011;66902;41.720;44.796;2023-06-24T17:43:10;20.70;;;7.90;;
77733;SDS011;66902;41.720;44.796;2023-06-24T17:45:40;16.40;;;6.10;;
77733;SDS011;66902;41.720;44.796;2023-06-24T17:48:11;8.70;;;6.20;;
77733;SDS011;66902;41.720;44.796;2023-06-24T17:50:42;17.20;;;6.50;;
77733;SDS011;66902;41.720;44.796;2023-06-24T17:53:12;9.10;;;6.30;;
77733;SDS011;66902;41.720;44.796;2023-06-24T17:55:45;6.90;;;5.10;;
77733;SDS011;66902;41.720;44.796;2023-06-24T17:58:20;11.80;;;4.90;;
77733;SDS011;66902;41.720;44.796;2023-06-24T18:00:51;6.80;;;6.10;;
77733;SDS011;66902;41.720;44.796;2023-06-24T18:03:22;24.30;;;7.10;;
77733;SDS011;66902;41.720;44.796;2023-06-24T18:05:53;15.60;;;6.80;;
77733;SDS011;66902;41.720;44.796;2023-06-24T18:08:25;10.50;;;6.30;;
77733;SDS011;66902;41.720;44.796;2023-06-24T18:10:56;16.00;;;7.40;;
77733;SDS011;66902;41.720;44.796;2023-06-24T18:13:27;16.70;;;7.30;;
77733;SDS011;66902;41.720;44.796;2023-06-24T18:15:57;20.60;;;8.00;;
77733;SDS011;66902;41.720;44.796;2023-06-24T18:18:28;16.20;;;8.30;;
77733;SDS011;66902;41.720;44.796;2023-06-24T18:20:58;15.80;;;7.90;;
77733;SDS011;66902;41.720;44.796;2023-06-24T18:23:29;12.80;;;7.60;;
77733;SDS011;66902;41.720;44.796;2023-06-24T18:26:00;16.60;;;7.60;;
77733;SDS011;66902;41.720;44.796;2023-06-24T18:28:30;12.70;;;7.70;;
77733;SDS011;66902;41.720;44.796;2023-06-24T18:31:01;12.60;;;6.90;;
77733;SDS011;66902;41.720;44.796;2023-06-24T18:33:31;15.50;;;7.40;;
77733;SDS011;66902;41.720;44.796;2023-06-24T18:36:02;18.80;;;7.90;;
77733;SDS011;66902;41.720;44.796;2023-06-24T18:38:33;12.20;;;6.20;;
77733;SDS011;66902;41.720;44.796;2023-06-24T18:41:03;17.40;;;7.00;;
77733;SDS011;66902;41.720;44.796;2023-06-24T18:43:34;18.80;;;9.20;;
77733;SDS011;66902;41.720;44.796;2023-06-24T18:46:04;13.30;;;8.60;;
77733;SDS011;66902;41.720;44.796;2023-06-24T18:48:36;12.70;;;7.70;;
77733;SDS011;66902;41.720;44.796;2023-06-24T18:51:08;15.40;;;7.60;;
77733;SDS011;66902;41.720;44.796;2023-06-24T18:53:39;12.50;;;7.00;;
77733;SDS011;66902;41.720;44.796;2023-06-24T18:56:09;22.70;;;7.10;;
77733;SDS011;66902;41.720;44.796;2023-06-24T18:58:40;10.30;;;6.30;;
77733;SDS011;66902;41.720;44.796;2023-06-24T19:01:11;16.70;;;7.20;;
77733;SDS011;66902;41.720;44.796;2023-06-24T19:03:41;21.90;;;10.00;;
77733;SDS011;66902;41.720;44.796;2023-06-24T19:06:12;17.20;;;9.80;;
77733;SDS011;66902;41.720;44.796;2023-06-24T19:08:43;20.50;;;10.20;;
77733;SDS011;66902;41.720;44.796;2023-06-24T19:11:18;12.80;;;7.20;;
77733;SDS011;66902;41.720;44.796;2023-06-24T19:13:50;20.80;;;11.90;;
77733;SDS011;66902;41.720;44.796;2023-06-24T19:16:23;18.80;;;10.20;;
77733;SDS011;66902;41.720;44.796;2023-06-24T19:18:54;32.60;;;9.30;;
77733;SDS011;66902;41.720;44.796;2023-06-24T19:21:25;21.70;;;8.80;;
77733;SDS011;66902;41.720;44.796;2023-06-24T19:23:55;21.30;;;6.50;;
77733;SDS011;66902;41.720;44.796;2023-06-24T19:26:33;10.90;;;5.70;;
77733;SDS011;66902;41.720;44.796;2023-06-24T19:29:06;15.20;;;6.30;;
77733;SDS011;66902;41.720;44.796;2023-06-24T19:31:39;29.80;;;7.70;;
77733;SDS011;66902;41.720;44.796;2023-06-24T19:34:10;14.80;;;7.90;;
77733;SDS011;66902;41.720;44.796;2023-06-24T19:36:40;19.20;;;8.60;;
77733;SDS011;66902;41.720;44.796;2023-06-24T19:39:12;16.90;;;7.70;;
77733;SDS011;66902;41.720;44.796;2023-06-24T19:41:43;12.60;;;7.50;;
77733;SDS011;66902;41.720;44.796;2023-06-24T19:44:14;18.10;;;8.30;;
77733;SDS011;66902;41.720;44.796;2023-06-24T19:46:44;18.00;;;8.20;;
77733;SDS011;66902;41.720;44.796;2023-06-24T19:49:15;23.70;;;7.80;;